Terminal Aerodrome Forecast
Issued by NWS

Home | Current Version | Previous Version | Text Only | Print | Product List | Glossary Off
Versions: 1 2 3 4 5 6 7 8 9 10 11 12 13

000
FTUS43 KMPX 291739
TAFRWF
TAF
KRWF 291739Z 2918/3018 31021G33KT P6SM OVC025
     FM292100 32028G39KT P6SM BKN040
     FM300100 31012KT P6SM SKC
     FM300700 25005KT P6SM SKC=

USA.gov is the U.S. government's official web portal to all federal, state and local government web resources and services.